sensor_id;sensor_type;location;lat;lon;timestamp;pressure;altitude;pressure_sealevel;temperature
35582;BMP180;21687;48.900;9.188;2023-08-08T00:00:58;98573.00;;;12.10
35582;BMP180;21687;48.900;9.188;2023-08-08T00:03:25;98566.00;;;12.10
35582;BMP180;21687;48.900;9.188;2023-08-08T00:05:51;98565.00;;;12.00
35582;BMP180;21687;48.900;9.188;2023-08-08T00:08:17;98565.00;;;12.00
35582;BMP180;21687;48.900;9.188;2023-08-08T00:10:44;98560.00;;;12.10
35582;BMP180;21687;48.900;9.188;2023-08-08T00:13:10;98564.00;;;12.10
35582;BMP180;21687;48.900;9.188;2023-08-08T00:15:36;98571.00;;;12.10
35582;BMP180;21687;48.900;9.188;2023-08-08T00:18:03;98569.00;;;12.20
35582;BMP180;21687;48.900;9.188;2023-08-08T00:20:29;98567.00;;;12.30
35582;BMP180;21687;48.900;9.188;2023-08-08T00:22:55;98568.00;;;12.40
35582;BMP180;21687;48.900;9.188;2023-08-08T00:25:22;98576.00;;;12.50
35582;BMP180;21687;48.900;9.188;2023-08-08T00:27:50;98576.00;;;12.60
35582;BMP180;21687;48.900;9.188;2023-08-08T00:30:16;98574.00;;;12.60
35582;BMP180;21687;48.900;9.188;2023-08-08T00:32:43;98575.00;;;12.70
35582;BMP180;21687;48.900;9.188;2023-08-08T00:35:09;98581.00;;;12.70
35582;BMP180;21687;48.900;9.188;2023-08-08T00:37:35;98575.00;;;12.70
35582;BMP180;21687;48.900;9.188;2023-08-08T00:40:02;98560.00;;;12.70
35582;BMP180;21687;48.900;9.188;2023-08-08T00:42:28;98561.00;;;12.70
35582;BMP180;21687;48.900;9.188;2023-08-08T00:44:54;98557.00;;;12.80
35582;BMP180;21687;48.900;9.188;2023-08-08T00:47:21;98558.00;;;12.80
35582;BMP180;21687;48.900;9.188;2023-08-08T00:49:47;98557.00;;;12.80
35582;BMP180;21687;48.900;9.188;2023-08-08T00:52:14;98566.00;;;12.90
35582;BMP180;21687;48.900;9.188;2023-08-08T00:54:41;98556.00;;;12.90
35582;BMP180;21687;48.900;9.188;2023-08-08T00:57:07;98537.00;;;12.90
35582;BMP180;21687;48.900;9.188;2023-08-08T00:59:33;98554.00;;;12.90
35582;BMP180;21687;48.900;9.188;2023-08-08T01:02:00;98553.00;;;12.90
35582;BMP180;21687;48.900;9.188;2023-08-08T01:04:27;98551.00;;;12.80
35582;BMP180;21687;48.900;9.188;2023-08-08T01:07:12;98547.00;;;12.80
35582;BMP180;21687;48.900;9.188;2023-08-08T01:09:59;98543.00;;;12.90
35582;BMP180;21687;48.900;9.188;2023-08-08T01:12:44;98556.00;;;12.90
35582;BMP180;21687;48.900;9.188;2023-08-08T01:15:12;98555.00;;;12.90
35582;BMP180;21687;48.900;9.188;2023-08-08T01:17:39;98543.00;;;12.90
35582;BMP180;21687;48.900;9.188;2023-08-08T01:20:07;98554.00;;;13.00
35582;BMP180;21687;48.900;9.188;2023-08-08T01:22:43;98546.00;;;13.10
35582;BMP180;21687;48.900;9.188;2023-08-08T01:25:11;98545.00;;;13.10
35582;BMP180;21687;48.900;9.188;2023-08-08T01:27:38;98546.00;;;13.10
35582;BMP180;21687;48.900;9.188;2023-08-08T01:30:06;98555.00;;;13.20
35582;BMP180;21687;48.900;9.188;2023-08-08T01:32:32;98550.00;;;13.20
35582;BMP180;21687;48.900;9.188;2023-08-08T01:34:59;98544.00;;;13.20
35582;BMP180;21687;48.900;9.188;2023-08-08T01:37:48;98534.00;;;13.20
35582;BMP180;21687;48.900;9.188;2023-08-08T01:40:19;98539.00;;;13.20
35582;BMP180;21687;48.900;9.188;2023-08-08T01:42:47;98528.00;;;13.20
35582;BMP180;21687;48.900;9.188;2023-08-08T01:45:15;98535.00;;;13.20
35582;BMP180;21687;48.900;9.188;2023-08-08T01:47:42;98537.00;;;13.20
35582;BMP180;21687;48.900;9.188;2023-08-08T01:50:09;98536.00;;;13.20
35582;BMP180;21687;48.900;9.188;2023-08-08T01:52:36;98538.00;;;13.20
35582;BMP180;21687;48.900;9.188;2023-08-08T01:55:02;98525.00;;;13.20
35582;BMP180;21687;48.900;9.188;2023-08-08T01:57:29;98528.00;;;13.30
35582;BMP180;21687;48.900;9.188;2023-08-08T01:59:55;98528.00;;;13.20
35582;BMP180;21687;48.900;9.188;2023-08-08T02:02:21;98534.00;;;13.20
35582;BMP180;21687;48.900;9.188;2023-08-08T02:04:47;98519.00;;;13.10
35582;BMP180;21687;48.900;9.188;2023-08-08T02:07:14;98528.00;;;13.10
35582;BMP180;21687;48.900;9.188;2023-08-08T02:09:40;98521.00;;;13.10
35582;BMP180;21687;48.900;9.188;2023-08-08T02:12:07;98526.00;;;13.00
35582;BMP180;21687;48.900;9.188;2023-08-08T02:14:33;98524.00;;;12.90
35582;BMP180;21687;48.900;9.188;2023-08-08T02:16:59;98519.00;;;12.90
35582;BMP180;21687;48.900;9.188;2023-08-08T02:19:25;98534.00;;;12.90
35582;BMP180;21687;48.900;9.188;2023-08-08T02:21:52;98519.00;;;12.80
35582;BMP180;21687;48.900;9.188;2023-08-08T02:24:18;98517.00;;;12.80
35582;BMP180;21687;48.900;9.188;2023-08-08T02:26:44;98518.00;;;12.70
35582;BMP180;21687;48.900;9.188;2023-08-08T02:29:11;98514.00;;;12.60
35582;BMP180;21687;48.900;9.188;2023-08-08T02:31:37;98511.00;;;12.60
35582;BMP180;21687;48.900;9.188;2023-08-08T02:34:03;98516.00;;;12.50
35582;BMP180;21687;48.900;9.188;2023-08-08T02:36:30;98523.00;;;12.50
35582;BMP180;21687;48.900;9.188;2023-08-08T02:38:56;98522.00;;;12.40
35582;BMP180;21687;48.900;9.188;2023-08-08T02:41:22;98523.00;;;12.40
35582;BMP180;21687;48.900;9.188;2023-08-08T02:43:49;98513.00;;;12.30
35582;BMP180;21687;48.900;9.188;2023-08-08T02:46:16;98520.00;;;12.20
35582;BMP180;21687;48.900;9.188;2023-08-08T02:48:42;98516.00;;;12.20
35582;BMP180;21687;48.900;9.188;2023-08-08T02:51:08;98525.00;;;12.20
35582;BMP180;21687;48.900;9.188;2023-08-08T02:53:34;98524.00;;;12.10
35582;BMP180;21687;48.900;9.188;2023-08-08T02:56:01;98524.00;;;12.10
35582;BMP180;21687;48.900;9.188;2023-08-08T02:58:27;98526.00;;;12.00
35582;BMP180;21687;48.900;9.188;2023-08-08T03:00:53;98523.00;;;12.00
35582;BMP180;21687;48.900;9.188;2023-08-08T03:03:20;98522.00;;;11.90
35582;BMP180;21687;48.900;9.188;2023-08-08T03:05:46;98529.00;;;11.80
35582;BMP180;21687;48.900;9.188;2023-08-08T03:08:12;98525.00;;;11.70
35582;BMP180;21687;48.900;9.188;2023-08-08T03:10:39;98515.00;;;11.70
35582;BMP180;21687;48.900;9.188;2023-08-08T03:13:05;98511.00;;;11.60
35582;BMP180;21687;48.900;9.188;2023-08-08T03:15:31;98513.00;;;11.60
35582;BMP180;21687;48.900;9.188;2023-08-08T03:17:57;98511.00;;;11.60
35582;BMP180;21687;48.900;9.188;2023-08-08T03:20:24;98501.00;;;11.60
35582;BMP180;21687;48.900;9.188;2023-08-08T03:22:50;98500.00;;;11.50
35582;BMP180;21687;48.900;9.188;2023-08-08T03:25:16;98506.00;;;11.60
35582;BMP180;21687;48.900;9.188;2023-08-08T03:27:43;98512.00;;;11.60
35582;BMP180;21687;48.900;9.188;2023-08-08T03:30:10;98506.00;;;11.60
35582;BMP180;21687;48.900;9.188;2023-08-08T03:32:36;98509.00;;;11.60
35582;BMP180;21687;48.900;9.188;2023-08-08T03:35:03;98520.00;;;11.50
35582;BMP180;21687;48.900;9.188;2023-08-08T03:37:30;98515.00;;;11.60
35582;BMP180;21687;48.900;9.188;2023-08-08T03:39:56;98519.00;;;11.60
35582;BMP180;21687;48.900;9.188;2023-08-08T03:42:22;98516.00;;;11.60
35582;BMP180;21687;48.900;9.188;2023-08-08T03:44:49;98517.00;;;11.60
35582;BMP180;21687;48.900;9.188;2023-08-08T03:47:15;98510.00;;;11.80
35582;BMP180;21687;48.900;9.188;2023-08-08T03:49:42;98517.00;;;11.90
35582;BMP180;21687;48.900;9.188;2023-08-08T03:52:08;98517.00;;;11.90
35582;BMP180;21687;48.900;9.188;2023-08-08T03:54:34;98513.00;;;12.00
35582;BMP180;21687;48.900;9.188;2023-08-08T03:57:00;98516.00;;;12.00
35582;BMP180;21687;48.900;9.188;2023-08-08T03:59:27;98511.00;;;12.00
35582;BMP180;21687;48.900;9.188;2023-08-08T04:01:53;98513.00;;;12.00
35582;BMP180;21687;48.900;9.188;2023-08-08T04:04:19;98515.00;;;12.00
35582;BMP180;21687;48.900;9.188;2023-08-08T04:06:46;98512.00;;;12.10
35582;BMP180;21687;48.900;9.188;2023-08-08T04:09:12;98513.00;;;12.20
35582;BMP180;21687;48.900;9.188;2023-08-08T04:11:38;98513.00;;;12.20
35582;BMP180;21687;48.900;9.188;2023-08-08T04:14:05;98510.00;;;12.30
35582;BMP180;21687;48.900;9.188;2023-08-08T04:16:31;98512.00;;;12.30
35582;BMP180;21687;48.900;9.188;2023-08-08T04:18:57;98510.00;;;12.30
35582;BMP180;21687;48.900;9.188;2023-08-08T04:21:25;98520.00;;;12.30
35582;BMP180;21687;48.900;9.188;2023-08-08T04:23:53;98513.00;;;12.30
35582;BMP180;21687;48.900;9.188;2023-08-08T04:26:19;98514.00;;;12.30
35582;BMP180;21687;48.900;9.188;2023-08-08T04:28:46;98513.00;;;12.30
35582;BMP180;21687;48.900;9.188;2023-08-08T04:31:12;98514.00;;;12.40
35582;BMP180;21687;48.900;9.188;2023-08-08T04:33:38;98509.00;;;12.40
35582;BMP180;21687;48.900;9.188;2023-08-08T04:36:04;98518.00;;;12.50
35582;BMP180;21687;48.900;9.188;2023-08-08T04:38:31;98521.00;;;12.50
35582;BMP180;21687;48.900;9.188;2023-08-08T04:40:57;98523.00;;;12.60
35582;BMP180;21687;48.900;9.188;2023-08-08T04:43:23;98525.00;;;12.70
35582;BMP180;21687;48.900;9.188;2023-08-08T04:45:50;98519.00;;;12.70
35582;BMP180;21687;48.900;9.188;2023-08-08T04:48:16;98526.00;;;12.80
35582;BMP180;21687;48.900;9.188;2023-08-08T04:50:42;98524.00;;;12.70
35582;BMP180;21687;48.900;9.188;2023-08-08T04:53:09;98531.00;;;12.70
35582;BMP180;21687;48.900;9.188;2023-08-08T04:55:35;98535.00;;;12.70
35582;BMP180;21687;48.900;9.188;2023-08-08T04:58:01;98522.00;;;12.70
35582;BMP180;21687;48.900;9.188;2023-08-08T05:00:28;98517.00;;;12.70
35582;BMP180;21687;48.900;9.188;2023-08-08T05:02:54;98520.00;;;12.70
35582;BMP180;21687;48.900;9.188;2023-08-08T05:05:21;98519.00;;;12.70
35582;BMP180;21687;48.900;9.188;2023-08-08T05:07:47;98523.00;;;13.10
35582;BMP180;21687;48.900;9.188;2023-08-08T05:10:13;98524.00;;;13.60
35582;BMP180;21687;48.900;9.188;2023-08-08T05:12:40;98517.00;;;14.10
35582;BMP180;21687;48.900;9.188;2023-08-08T05:15:06;98513.00;;;14.40
35582;BMP180;21687;48.900;9.188;2023-08-08T05:17:33;98515.00;;;14.60
35582;BMP180;21687;48.900;9.188;2023-08-08T05:19:59;98516.00;;;15.00
35582;BMP180;21687;48.900;9.188;2023-08-08T05:22:26;98521.00;;;15.40
35582;BMP180;21687;48.900;9.188;2023-08-08T05:24:52;98523.00;;;15.20
35582;BMP180;21687;48.900;9.188;2023-08-08T05:27:18;98515.00;;;15.20
35582;BMP180;21687;48.900;9.188;2023-08-08T05:29:45;98527.00;;;14.90
35582;BMP180;21687;48.900;9.188;2023-08-08T05:32:11;98524.00;;;14.70
35582;BMP180;21687;48.900;9.188;2023-08-08T05:34:37;98537.00;;;14.50
35582;BMP180;21687;48.900;9.188;2023-08-08T05:37:04;98528.00;;;14.40
35582;BMP180;21687;48.900;9.188;2023-08-08T05:39:30;98530.00;;;14.40
35582;BMP180;21687;48.900;9.188;2023-08-08T05:41:57;98537.00;;;14.30
35582;BMP180;21687;48.900;9.188;2023-08-08T05:44:23;98544.00;;;14.30
35582;BMP180;21687;48.900;9.188;2023-08-08T05:46:49;98543.00;;;14.30
35582;BMP180;21687;48.900;9.188;2023-08-08T05:49:16;98546.00;;;14.30
35582;BMP180;21687;48.900;9.188;2023-08-08T05:51:42;98545.00;;;14.40
35582;BMP180;21687;48.900;9.188;2023-08-08T05:54:08;98538.00;;;14.40
35582;BMP180;21687;48.900;9.188;2023-08-08T05:56:36;98542.00;;;14.40
35582;BMP180;21687;48.900;9.188;2023-08-08T05:59:03;98545.00;;;14.50
35582;BMP180;21687;48.900;9.188;2023-08-08T06:01:33;98524.00;;;14.50
35582;BMP180;21687;48.900;9.188;2023-08-08T06:04:18;98531.00;;;14.50
35582;BMP180;21687;48.900;9.188;2023-08-08T06:06:44;98537.00;;;14.60
35582;BMP180;21687;48.900;9.188;2023-08-08T06:09:11;98539.00;;;14.60
35582;BMP180;21687;48.900;9.188;2023-08-08T06:11:37;98548.00;;;14.70
35582;BMP180;21687;48.900;9.188;2023-08-08T06:14:03;98535.00;;;14.80
35582;BMP180;21687;48.900;9.188;2023-08-08T06:16:29;98545.00;;;14.80
35582;BMP180;21687;48.900;9.188;2023-08-08T06:18:56;98546.00;;;14.90
35582;BMP180;21687;48.900;9.188;2023-08-08T06:21:22;98541.00;;;15.50
35582;BMP180;21687;48.900;9.188;2023-08-08T06:23:48;98540.00;;;16.20
35582;BMP180;21687;48.900;9.188;2023-08-08T06:26:15;98544.00;;;16.80
35582;BMP180;21687;48.900;9.188;2023-08-08T06:28:41;98545.00;;;17.20
35582;BMP180;21687;48.900;9.188;2023-08-08T06:31:08;98542.00;;;17.70
35582;BMP180;21687;48.900;9.188;2023-08-08T06:33:34;98541.00;;;18.00
35582;BMP180;21687;48.900;9.188;2023-08-08T06:36:01;98544.00;;;18.60
35582;BMP180;21687;48.900;9.188;2023-08-08T06:38:27;98549.00;;;18.90
35582;BMP180;21687;48.900;9.188;2023-08-08T06:40:54;98546.00;;;19.00
35582;BMP180;21687;48.900;9.188;2023-08-08T06:43:22;98540.00;;;19.40
35582;BMP180;21687;48.900;9.188;2023-08-08T06:45:48;98543.00;;;19.40
35582;BMP180;21687;48.900;9.188;2023-08-08T06:48:15;98549.00;;;18.90
35582;BMP180;21687;48.900;9.188;2023-08-08T06:50:41;98551.00;;;18.60
35582;BMP180;21687;48.900;9.188;2023-08-08T06:53:07;98541.00;;;18.60
35582;BMP180;21687;48.900;9.188;2023-08-08T06:55:34;98548.00;;;18.80
35582;BMP180;21687;48.900;9.188;2023-08-08T06:58:00;98534.00;;;19.10
35582;BMP180;21687;48.900;9.188;2023-08-08T07:00:26;98542.00;;;19.40
35582;BMP180;21687;48.900;9.188;2023-08-08T07:02:54;98541.00;;;19.50
35582;BMP180;21687;48.900;9.188;2023-08-08T07:05:20;98544.00;;;19.20
35582;BMP180;21687;48.900;9.188;2023-08-08T07:07:49;98540.00;;;19.50
35582;BMP180;21687;48.900;9.188;2023-08-08T07:10:16;98539.00;;;19.70
35582;BMP180;21687;48.900;9.188;2023-08-08T07:12:42;98538.00;;;19.30
35582;BMP180;21687;48.900;9.188;2023-08-08T07:15:09;98542.00;;;19.40
35582;BMP180;21687;48.900;9.188;2023-08-08T07:17:35;98538.00;;;19.60
35582;BMP180;21687;48.900;9.188;2023-08-08T07:20:02;98547.00;;;19.90
35582;BMP180;21687;48.900;9.188;2023-08-08T07:22:28;98544.00;;;19.70
35582;BMP180;21687;48.900;9.188;2023-08-08T07:24:55;98546.00;;;19.80
35582;BMP180;21687;48.900;9.188;2023-08-08T07:27:21;98542.00;;;19.80
35582;BMP180;21687;48.900;9.188;2023-08-08T07:29:48;98539.00;;;19.30
35582;BMP180;21687;48.900;9.188;2023-08-08T07:32:14;98542.00;;;19.50
35582;BMP180;21687;48.900;9.188;2023-08-08T07:34:40;98540.00;;;19.60
35582;BMP180;21687;48.900;9.188;2023-08-08T07:37:07;98540.00;;;19.80
35582;BMP180;21687;48.900;9.188;2023-08-08T07:39:33;98546.00;;;20.10
35582;BMP180;21687;48.900;9.188;2023-08-08T07:41:59;98541.00;;;20.70
35582;BMP180;21687;48.900;9.188;2023-08-08T07:44:26;98539.00;;;20.70
35582;BMP180;21687;48.900;9.188;2023-08-08T07:46:53;98537.00;;;21.00
35582;BMP180;21687;48.900;9.188;2023-08-08T07:49:19;98514.00;;;21.50
35582;BMP180;21687;48.900;9.188;2023-08-08T07:51:45;98535.00;;;21.50
35582;BMP180;21687;48.900;9.188;2023-08-08T07:54:12;98528.00;;;21.40
35582;BMP180;21687;48.900;9.188;2023-08-08T07:56:38;98523.00;;;21.60
35582;BMP180;21687;48.900;9.188;2023-08-08T07:59:04;98522.00;;;21.60
35582;BMP180;21687;48.900;9.188;2023-08-08T08:01:31;98535.00;;;21.80
35582;BMP180;21687;48.900;9.188;2023-08-08T08:03:58;98526.00;;;21.40
35582;BMP180;21687;48.900;9.188;2023-08-08T08:06:24;98538.00;;;21.20
35582;BMP180;21687;48.900;9.188;2023-08-08T08:08:50;98534.00;;;21.00
35582;BMP180;21687;48.900;9.188;2023-08-08T08:11:16;98529.00;;;21.10
35582;BMP180;21687;48.900;9.188;2023-08-08T08:13:43;98526.00;;;20.60
35582;BMP180;21687;48.900;9.188;2023-08-08T08:16:09;98529.00;;;20.40
35582;BMP180;21687;48.900;9.188;2023-08-08T08:18:36;98525.00;;;20.20
35582;BMP180;21687;48.900;9.188;2023-08-08T08:21:03;98529.00;;;20.40
35582;BMP180;21687;48.900;9.188;2023-08-08T08:23:29;98527.00;;;20.20
35582;BMP180;21687;48.900;9.188;2023-08-08T08:25:58;98524.00;;;20.00
35582;BMP180;21687;48.900;9.188;2023-08-08T08:28:25;98527.00;;;20.30
35582;BMP180;21687;48.900;9.188;2023-08-08T08:30:51;98520.00;;;20.60
35582;BMP180;21687;48.900;9.188;2023-08-08T08:33:17;98519.00;;;20.90
35582;BMP180;21687;48.900;9.188;2023-08-08T08:35:44;98521.00;;;21.00
35582;BMP180;21687;48.900;9.188;2023-08-08T08:38:11;98524.00;;;21.10
35582;BMP180;21687;48.900;9.188;2023-08-08T08:40:39;98526.00;;;21.00
35582;BMP180;21687;48.900;9.188;2023-08-08T08:43:07;98520.00;;;20.70
35582;BMP180;21687;48.900;9.188;2023-08-08T08:45:38;98518.00;;;20.80
35582;BMP180;21687;48.900;9.188;2023-08-08T08:48:09;98518.00;;;20.60
35582;BMP180;21687;48.900;9.188;2023-08-08T08:50:39;98528.00;;;21.10
35582;BMP180;21687;48.900;9.188;2023-08-08T08:53:07;98514.00;;;21.10
35582;BMP180;21687;48.900;9.188;2023-08-08T08:55:34;98528.00;;;20.90
35582;BMP180;21687;48.900;9.188;2023-08-08T08:58:00;98520.00;;;20.90
35582;BMP180;21687;48.900;9.188;2023-08-08T09:00:27;98520.00;;;20.50
35582;BMP180;21687;48.900;9.188;2023-08-08T09:02:54;98516.00;;;20.30
35582;BMP180;21687;48.900;9.188;2023-08-08T09:05:25;98523.00;;;20.30
35582;BMP180;21687;48.900;9.188;2023-08-08T09:07:51;98505.00;;;20.50
35582;BMP180;21687;48.900;9.188;2023-08-08T09:10:18;98515.00;;;21.00
35582;BMP180;21687;48.900;9.188;2023-08-08T09:12:45;98518.00;;;21.20
35582;BMP180;21687;48.900;9.188;2023-08-08T09:15:12;98507.00;;;21.10
35582;BMP180;21687;48.900;9.188;2023-08-08T09:17:42;98507.00;;;20.80
35582;BMP180;21687;48.900;9.188;2023-08-08T09:20:11;98510.00;;;20.90
35582;BMP180;21687;48.900;9.188;2023-08-08T09:22:38;98505.00;;;21.00
35582;BMP180;21687;48.900;9.188;2023-08-08T09:25:06;98499.00;;;21.20
35582;BMP180;21687;48.900;9.188;2023-08-08T09:27:32;98502.00;;;21.30
35582;BMP180;21687;48.900;9.188;2023-08-08T09:29:59;98504.00;;;21.50
35582;BMP180;21687;48.900;9.188;2023-08-08T09:32:32;98493.00;;;21.90
35582;BMP180;21687;48.900;9.188;2023-08-08T09:34:59;98502.00;;;22.00
35582;BMP180;21687;48.900;9.188;2023-08-08T09:37:27;98500.00;;;21.40
35582;BMP180;21687;48.900;9.188;2023-08-08T09:40:01;98499.00;;;21.50
35582;BMP180;21687;48.900;9.188;2023-08-08T09:42:30;98491.00;;;21.30
35582;BMP180;21687;48.900;9.188;2023-08-08T09:44:57;98493.00;;;21.40
35582;BMP180;21687;48.900;9.188;2023-08-08T09:47:24;98486.00;;;21.40
35582;BMP180;21687;48.900;9.188;2023-08-08T09:49:51;98494.00;;;21.70
35582;BMP180;21687;48.900;9.188;2023-08-08T09:52:18;98484.00;;;22.10
35582;BMP180;21687;48.900;9.188;2023-08-08T09:54:45;98482.00;;;22.50
35582;BMP180;21687;48.900;9.188;2023-08-08T09:57:12;98485.00;;;22.60
35582;BMP180;21687;48.900;9.188;2023-08-08T09:59:39;98480.00;;;22.10
35582;BMP180;21687;48.900;9.188;2023-08-08T10:02:09;98478.00;;;21.90
35582;BMP180;21687;48.900;9.188;2023-08-08T10:04:40;98474.00;;;21.60
35582;BMP180;21687;48.900;9.188;2023-08-08T10:07:08;98471.00;;;21.90
35582;BMP180;21687;48.900;9.188;2023-08-08T10:09:34;98471.00;;;22.20
35582;BMP180;21687;48.900;9.188;2023-08-08T10:12:01;98475.00;;;22.30
35582;BMP180;21687;48.900;9.188;2023-08-08T10:14:32;98481.00;;;22.30
35582;BMP180;21687;48.900;9.188;2023-08-08T10:16:59;98482.00;;;22.40
35582;BMP180;21687;48.900;9.188;2023-08-08T10:19:28;98494.00;;;22.50
35582;BMP180;21687;48.900;9.188;2023-08-08T10:22:00;98479.00;;;22.50
35582;BMP180;21687;48.900;9.188;2023-08-08T10:24:34;98489.00;;;22.40
35582;BMP180;21687;48.900;9.188;2023-08-08T10:27:03;98489.00;;;22.20
35582;BMP180;21687;48.900;9.188;2023-08-08T10:29:33;98485.00;;;22.10
35582;BMP180;21687;48.900;9.188;2023-08-08T10:32:04;98482.00;;;21.90
35582;BMP180;21687;48.900;9.188;2023-08-08T10:34:44;98489.00;;;22.50
35582;BMP180;21687;48.900;9.188;2023-08-08T10:37:12;98484.00;;;22.40
35582;BMP180;21687;48.900;9.188;2023-08-08T10:39:59;98500.00;;;22.10
35582;BMP180;21687;48.900;9.188;2023-08-08T10:42:27;98494.00;;;22.40
35582;BMP180;21687;48.900;9.188;2023-08-08T10:44:55;98481.00;;;22.30
35582;BMP180;21687;48.900;9.188;2023-08-08T10:47:25;98481.00;;;22.50
35582;BMP180;21687;48.900;9.188;2023-08-08T10:50:08;98474.00;;;22.70
35582;BMP180;21687;48.900;9.188;2023-08-08T10:55:30;98481.00;;;22.10
35582;BMP180;21687;48.900;9.188;2023-08-08T10:58:06;98481.00;;;22.20
35582;BMP180;21687;48.900;9.188;2023-08-08T11:00:34;98478.00;;;22.50
35582;BMP180;21687;48.900;9.188;2023-08-08T11:03:02;98484.00;;;22.60
35582;BMP180;21687;48.900;9.188;2023-08-08T11:05:35;98474.00;;;22.70
35582;BMP180;21687;48.900;9.188;2023-08-08T11:08:03;98475.00;;;22.30
35582;BMP180;21687;48.900;9.188;2023-08-08T11:10:37;98464.00;;;22.90
35582;BMP180;21687;48.900;9.188;2023-08-08T11:13:06;98479.00;;;22.70
35582;BMP180;21687;48.900;9.188;2023-08-08T11:15:34;98477.00;;;22.30
35582;BMP180;21687;48.900;9.188;2023-08-08T11:18:02;98472.00;;;22.40
35582;BMP180;21687;48.900;9.188;2023-08-08T11:20:33;98476.00;;;22.50
35582;BMP180;21687;48.900;9.188;2023-08-08T11:23:00;98468.00;;;23.00
35582;BMP180;21687;48.900;9.188;2023-08-08T11:25:28;98476.00;;;23.00
35582;BMP180;21687;48.900;9.188;2023-08-08T11:27:56;98468.00;;;22.70
35582;BMP180;21687;48.900;9.188;2023-08-08T11:30:27;98473.00;;;22.40
35582;BMP180;21687;48.900;9.188;2023-08-08T11:32:54;98470.00;;;22.50
35582;BMP180;21687;48.900;9.188;2023-08-08T11:35:24;98479.00;;;22.20
35582;BMP180;21687;48.900;9.188;2023-08-08T11:37:53;98470.00;;;22.20
35582;BMP180;21687;48.900;9.188;2023-08-08T11:40:20;98467.00;;;22.40
35582;BMP180;21687;48.900;9.188;2023-08-08T11:42:48;98465.00;;;22.70
35582;BMP180;21687;48.900;9.188;2023-08-08T11:45:16;98458.00;;;22.80
35582;BMP180;21687;48.900;9.188;2023-08-08T11:47:43;98464.00;;;23.00
35582;BMP180;21687;48.900;9.188;2023-08-08T11:50:11;98464.00;;;22.80
35582;BMP180;21687;48.900;9.188;2023-08-08T11:52:43;98459.00;;;22.80
35582;BMP180;21687;48.900;9.188;2023-08-08T11:55:12;98462.00;;;23.10
35582;BMP180;21687;48.900;9.188;2023-08-08T11:57:39;98444.00;;;23.40
35582;BMP180;21687;48.900;9.188;2023-08-08T12:00:10;98461.00;;;23.20
35582;BMP180;21687;48.900;9.188;2023-08-08T12:02:43;98455.00;;;23.50
35582;BMP180;21687;48.900;9.188;2023-08-08T12:05:12;98458.00;;;23.50
35582;BMP180;21687;48.900;9.188;2023-08-08T12:07:40;98470.00;;;23.00
35582;BMP180;21687;48.900;9.188;2023-08-08T12:10:15;98454.00;;;22.70
35582;BMP180;21687;48.900;9.188;2023-08-08T12:12:45;98445.00;;;22.90
35582;BMP180;21687;48.900;9.188;2023-08-08T12:15:12;98450.00;;;22.70
35582;BMP180;21687;48.900;9.188;2023-08-08T12:17:39;98438.00;;;22.90
35582;BMP180;21687;48.900;9.188;2023-08-08T12:20:07;98436.00;;;22.90
35582;BMP180;21687;48.900;9.188;2023-08-08T12:22:34;98445.00;;;22.80
35582;BMP180;21687;48.900;9.188;2023-08-08T12:25:00;98443.00;;;22.80
35582;BMP180;21687;48.900;9.188;2023-08-08T12:27:27;98436.00;;;22.70
35582;BMP180;21687;48.900;9.188;2023-08-08T12:29:53;98438.00;;;22.80
35582;BMP180;21687;48.900;9.188;2023-08-08T12:32:20;98445.00;;;22.70
35582;BMP180;21687;48.900;9.188;2023-08-08T12:34:50;98445.00;;;22.60
35582;BMP180;21687;48.900;9.188;2023-08-08T12:37:17;98438.00;;;22.20
35582;BMP180;21687;48.900;9.188;2023-08-08T12:39:43;98444.00;;;21.80
35582;BMP180;21687;48.900;9.188;2023-08-08T12:42:10;98434.00;;;21.70
35582;BMP180;21687;48.900;9.188;2023-08-08T12:44:36;98424.00;;;22.00
35582;BMP180;21687;48.900;9.188;2023-08-08T12:47:03;98436.00;;;21.90
35582;BMP180;21687;48.900;9.188;2023-08-08T12:49:29;98439.00;;;21.90
35582;BMP180;21687;48.900;9.188;2023-08-08T12:51:56;98441.00;;;21.80
35582;BMP180;21687;48.900;9.188;2023-08-08T12:54:22;98431.00;;;21.80
35582;BMP180;21687;48.900;9.188;2023-08-08T12:56:49;98441.00;;;22.10
35582;BMP180;21687;48.900;9.188;2023-08-08T12:59:15;98427.00;;;22.20
35582;BMP180;21687;48.900;9.188;2023-08-08T13:01:41;98428.00;;;22.30
35582;BMP180;21687;48.900;9.188;2023-08-08T13:04:07;98432.00;;;22.30
35582;BMP180;21687;48.900;9.188;2023-08-08T13:06:34;98429.00;;;22.60
35582;BMP180;21687;48.900;9.188;2023-08-08T13:09:00;98422.00;;;22.30
35582;BMP180;21687;48.900;9.188;2023-08-08T13:11:27;98436.00;;;22.50
35582;BMP180;21687;48.900;9.188;2023-08-08T13:13:54;98427.00;;;22.80
35582;BMP180;21687;48.900;9.188;2023-08-08T13:16:20;98421.00;;;22.90
35582;BMP180;21687;48.900;9.188;2023-08-08T13:18:46;98429.00;;;22.80
35582;BMP180;21687;48.900;9.188;2023-08-08T13:21:12;98428.00;;;22.90
35582;BMP180;21687;48.900;9.188;2023-08-08T13:23:40;98419.00;;;22.50
35582;BMP180;21687;48.900;9.188;2023-08-08T13:26:07;98421.00;;;22.40
35582;BMP180;21687;48.900;9.188;2023-08-08T13:28:33;98427.00;;;22.30
35582;BMP180;21687;48.900;9.188;2023-08-08T13:31:00;98425.00;;;21.90
35582;BMP180;21687;48.900;9.188;2023-08-08T13:33:27;98429.00;;;21.60
35582;BMP180;21687;48.900;9.188;2023-08-08T13:35:53;98420.00;;;21.90
35582;BMP180;21687;48.900;9.188;2023-08-08T13:38:19;98417.00;;;22.20
35582;BMP180;21687;48.900;9.188;2023-08-08T13:40:45;98409.00;;;22.40
35582;BMP180;21687;48.900;9.188;2023-08-08T13:43:12;98420.00;;;22.50
35582;BMP180;21687;48.900;9.188;2023-08-08T13:45:38;98416.00;;;22.60
35582;BMP180;21687;48.900;9.188;2023-08-08T13:48:05;98394.00;;;22.70
35582;BMP180;21687;48.900;9.188;2023-08-08T13:50:31;98405.00;;;22.70
35582;BMP180;21687;48.900;9.188;2023-08-08T13:52:58;98403.00;;;22.60
35582;BMP180;21687;48.900;9.188;2023-08-08T13:55:24;98406.00;;;22.60
35582;BMP180;21687;48.900;9.188;2023-08-08T13:57:52;98412.00;;;22.70
35582;BMP180;21687;48.900;9.188;2023-08-08T14:00:21;98409.00;;;22.60
35582;BMP180;21687;48.900;9.188;2023-08-08T14:02:47;98400.00;;;22.70
35582;BMP180;21687;48.900;9.188;2023-08-08T14:05:14;98399.00;;;23.00
35582;BMP180;21687;48.900;9.188;2023-08-08T14:07:41;98399.00;;;23.20
35582;BMP180;21687;48.900;9.188;2023-08-08T14:10:08;98409.00;;;23.00
35582;BMP180;21687;48.900;9.188;2023-08-08T14:12:35;98413.00;;;22.90